Terminal Aerodrome Forecast
Issued by NWS

Home | Current Version | Previous Version | Graphics & Text | Print | Product List | Glossary On
Versions: 1 2 3 4 5 6 7 8 9 10 11 12 13 14 15
000
FTUS43 KBIS 211120
TAFMOT
TAF
KMOT 211120Z 2112/2212 16004KT P6SM SCT090 OVC120
     FM211400 22006KT P6SM BKN120
     FM211500 26007KT P6SM SCT200
     FM211700 32011KT P6SM SCT200
     FM220200 31007KT P6SM SKC=

USA.gov is the U.S. government's official web portal to all federal, state and local government web resources and services.